Time;durP1;ratioP1;P1;durP2;ratioP2;P2;SDS_P1;SDS_P2;PMS_P1;PMS_P2;Temp;Humidity;BMP_temperature;BMP_pressure;BME280_temperature;BME280_humidity;BME280_pressure;Samples;Min_cycle;Max_cycle;Signal;HPM_P1;HPM_P2
2021/10/02 00:46:31;;;;;;;26.63;15.20;;;9.60;71.80;;;;;;5061888;28;20031;-37
2021/10/02 00:48:58;;;;;;;23.58;14.95;;;9.60;71.80;;;;;;5061350;28;20420;-40
2021/10/02 00:51:23;;;;;;;27.55;15.40;;;9.60;71.90;;;;;;5061493;28;20478;-40
2021/10/02 00:53:49;;;;;;;34.05;16.75;;;9.50;71.80;;;;;;5061410;28;20065;-40
2021/10/02 00:56:15;;;;;;;28.40;16.25;;;9.50;71.70;;;;;;5061705;28;20075;-39
2021/10/02 00:58:46;;;;;;;36.15;16.23;;;9.50;71.70;;;;;;5061954;28;20073;-41
2021/10/02 01:01:15;;;;;;;22.10;14.07;;;9.50;71.80;;;;;;5061539;28;20033;-37
2021/10/02 01:04:07;;;;;;;32.83;14.73;;;9.50;71.90;;;;;;5061759;28;20059;-39
2021/10/02 01:06:46;;;;;;;36.72;15.80;;;9.40;71.80;;;;;;5061416;28;20064;-40
2021/10/02 01:09:40;;;;;;;28.35;15.73;;;9.40;72.00;;;;;;5061834;28;20041;-36
2021/10/02 01:12:40;;;;;;;27.45;15.75;;;9.40;72.00;;;;;;5059211;28;20119;-37
2021/10/02 01:15:10;;;;;;;22.50;14.70;;;9.40;72.00;;;;;;5058255;28;20098;-39
2021/10/02 01:17:52;;;;;;;21.40;13.68;;;9.30;72.20;;;;;;5058131;28;20041;-38
2021/10/02 01:20:37;;;;;;;23.08;12.95;;;9.30;72.10;;;;;;5058499;28;20032;-37
2021/10/02 01:23:16;;;;;;;23.95;13.75;;;9.30;72.30;;;;;;5058134;28;20034;-37
2021/10/02 01:25:54;;;;;;;20.85;13.63;;;9.30;72.30;;;;;;5058195;28;20106;-38
2021/10/02 01:28:21;;;;;;;30.83;14.60;;;9.30;72.30;;;;;;5058347;28;20037;-38
2021/10/02 01:31:00;;;;;;;31.63;14.77;;;9.30;72.40;;;;;;5057624;28;20029;-37
2021/10/02 01:33:44;;;;;;;33.55;15.30;;;9.20;72.40;;;;;;5058230;28;20037;-39
2021/10/02 01:47:23;;;;;;;27.20;14.45;;;9.20;72.30;;;;;;5057689;28;20419;-41
2021/10/02 01:49:54;;;;;;;22.88;13.50;;;9.20;72.40;;;;;;5057353;28;20047;-41
2021/10/02 01:52:32;;;;;;;23.08;13.90;;;9.20;72.40;;;;;;5057469;28;20065;-41
2021/10/02 01:54:59;;;;;;;23.10;13.15;;;9.20;72.40;;;;;;5057791;28;20044;-40
2021/10/02 01:57:34;;;;;;;36.17;14.82;;;9.20;72.50;;;;;;5057639;28;20067;-38
2021/10/02 02:00:09;;;;;;;30.67;12.95;;;9.20;72.40;;;;;;5057204;28;20029;-39
2021/10/02 02:02:36;;;;;;;25.75;14.35;;;9.20;72.40;;;;;;5057208;28;20047;-37
2021/10/02 02:05:07;;;;;;;21.55;13.95;;;9.20;72.60;;;;;;5057294;28;20021;-37
2021/10/02 02:07:34;;;;;;;;;;;9.20;72.80;;;;;;5057596;28;20061;-37
2021/10/02 02:10:01;;;;;;;20.20;11.93;;;9.20;72.40;;;;;;5057380;28;19912;-40
2021/10/02 02:12:32;;;;;;;26.73;13.32;;;9.20;72.50;;;;;;5057364;28;20041;-37
2021/10/02 02:15:02;;;;;;;;;;;9.20;72.60;;;;;;5057428;28;20028;-37
2021/10/02 02:17:28;;;;;;;27.40;13.45;;;9.20;72.30;;;;;;5057377;28;20442;-38
2021/10/02 02:19:57;;;;;;;23.30;13.00;;;9.20;72.60;;;;;;5056669;28;20103;-39
2021/10/02 02:22:23;;;;;;;27.35;15.68;;;9.20;72.70;;;;;;5056785;28;20040;-37
2021/10/02 02:24:50;;;;;;;27.80;13.68;;;9.20;72.60;;;;;;5055772;28;20119;-40
2021/10/02 02:27:16;;;;;;;27.33;14.43;;;9.20;72.40;;;;;;5056499;28;20033;-37
2021/10/02 02:29:42;;;;;;;27.67;16.10;;;9.10;72.40;;;;;;5056623;28;20021;-36
2021/10/02 02:32:08;;;;;;;31.10;14.77;;;9.10;72.40;;;;;;5056636;28;20021;-39
2021/10/02 02:34:34;;;;;;;30.08;14.38;;;9.10;72.50;;;;;;5056905;28;20029;-37
2021/10/02 02:37:01;;;;;;;25.83;12.25;;;9.00;72.60;;;;;;5056772;28;20098;-37
2021/10/02 02:39:27;;;;;;;31.80;15.77;;;9.10;72.70;;;;;;5056498;28;20031;-40
2021/10/02 02:41:53;;;;;;;34.60;16.30;;;9.00;72.80;;;;;;5056120;28;20102;-37
2021/10/02 02:44:19;;;;;;;25.60;14.60;;;9.00;72.90;;;;;;5056795;28;20044;-40
2021/10/02 02:46:54;;;;;;;27.70;15.13;;;9.00;73.00;;;;;;5056521;28;20025;-36
2021/10/02 02:49:44;;;;;;;43.95;18.70;;;9.00;73.00;;;;;;5056276;28;20069;-38
2021/10/02 02:52:20;;;;;;;49.60;17.30;;;9.10;73.00;;;;;;5056356;28;20028;-40
2021/10/02 02:54:55;;;;;;;41.28;15.32;;;9.10;73.20;;;;;;5056661;28;20123;-40
2021/10/02 02:57:25;;;;;;;28.00;16.25;;;9.10;73.30;;;;;;5056471;28;20036;-38
2021/10/02 03:00:07;;;;;;;27.55;16.00;;;9.10;73.30;;;;;;5056202;28;20337;-40
2021/10/02 03:02:36;;;;;;;33.67;14.82;;;9.10;73.30;;;;;;5056419;28;20313;-40
2021/10/02 03:05:03;;;;;;;23.40;14.63;;;9.20;73.50;;;;;;5055920;28;20036;-40
2021/10/02 03:07:32;;;;;;;27.00;14.55;;;9.20;73.50;;;;;;5055626;28;20025;-37
2021/10/02 03:10:01;;;;;;;25.52;15.75;;;9.20;73.50;;;;;;5055999;28;20056;-38
2021/10/02 03:12:33;;;;;;;25.42;15.93;;;9.30;73.50;;;;;;5056048;28;20056;-37
2021/10/02 03:15:00;;;;;;;27.02;16.25;;;9.30;73.40;;;;;;5056171;28;20037;-38
2021/10/02 03:17:27;;;;;;;35.17;16.73;;;9.30;73.50;;;;;;5055806;28;20043;-40
2021/10/02 03:19:53;;;;;;;28.48;15.10;;;9.30;73.60;;;;;;5055965;28;20620;-38
2021/10/02 03:22:20;;;;;;;37.28;15.32;;;9.40;73.70;;;;;;5055822;28;20025;-37
2021/10/02 03:24:48;;;;;;;35.97;18.25;;;9.40;73.70;;;;;;5055980;28;20040;-41
2021/10/02 03:27:14;;;;;;;26.90;16.65;;;9.40;73.70;;;;;;5055702;28;20029;-38
2021/10/02 03:29:40;;;;;;;27.13;16.48;;;9.50;73.60;;;;;;5055702;28;20032;-38
2021/10/02 03:32:08;;;;;;;29.17;17.98;;;9.50;73.60;;;;;;5055599;28;20317;-40
2021/10/02 03:34:36;;;;;;;30.10;18.42;;;9.50;73.40;;;;;;5055689;28;20029;-37
2021/10/02 03:37:02;;;;;;;32.67;18.67;;;9.50;73.40;;;;;;5055218;28;20420;-37
2021/10/02 03:39:28;;;;;;;33.85;16.15;;;9.60;73.40;;;;;;5055385;28;20068;-39
2021/10/02 03:42:05;;;;;;;41.95;19.75;;;9.60;73.30;;;;;;5055274;28;20059;-39
2021/10/02 03:44:30;;;;;;;42.10;18.02;;;9.60;73.30;;;;;;5055469;28;20409;-37
2021/10/02 03:46:56;;;;;;;38.55;18.73;;;9.60;73.30;;;;;;5055118;28;20025;-40
2021/10/02 03:49:22;;;;;;;24.02;15.82;;;9.60;73.40;;;;;;5055646;28;20433;-37
2021/10/02 03:51:47;;;;;;;33.55;17.80;;;9.60;73.30;;;;;;5055212;28;20028;-38
2021/10/02 03:54:13;;;;;;;28.80;16.55;;;9.50;73.30;;;;;;5054954;28;20441;-40
2021/10/02 03:56:38;;;;;;;26.90;16.38;;;9.60;73.40;;;;;;5055287;28;20412;-41
2021/10/02 03:59:04;;;;;;;48.58;19.50;;;9.60;73.40;;;;;;5055651;28;20041;-39
2021/10/02 04:01:30;;;;;;;52.63;21.08;;;9.50;73.40;;;;;;5055200;28;20028;-41
2021/10/02 04:03:55;;;;;;;38.75;19.35;;;9.50;73.90;;;;;;5055418;28;20107;-37
2021/10/02 04:06:21;;;;;;;45.92;23.70;;;9.50;73.50;;;;;;5055113;28;20064;-39
2021/10/02 04:08:47;;;;;;;35.83;18.75;;;9.50;73.60;;;;;;5055510;28;20049;-41
2021/10/02 04:11:13;;;;;;;67.47;25.35;;;9.50;73.70;;;;;;5055182;28;20037;-40
2021/10/02 04:13:38;;;;;;;46.60;22.20;;;9.50;73.50;;;;;;5055522;28;20037;-41
2021/10/02 04:16:04;;;;;;;51.97;23.90;;;9.50;73.60;;;;;;5055030;28;20029;-41
2021/10/02 04:18:32;;;;;;;55.20;32.35;;;9.50;73.80;;;;;;5055160;28;20103;-40
2021/10/02 04:20:58;;;;;;;64.45;37.88;;;9.50;73.90;;;;;;5054976;28;20044;-38
2021/10/02 04:23:24;;;;;;;65.40;31.10;;;9.50;74.00;;;;;;5054076;28;20317;-39
2021/10/02 04:25:50;;;;;;;54.47;27.90;;;9.50;74.10;;;;;;5054708;28;20025;-40
2021/10/02 04:28:16;;;;;;;74.70;36.95;;;9.50;74.10;;;;;;5055101;28;20025;-37
2021/10/02 04:30:42;;;;;;;61.03;26.33;;;9.50;74.30;;;;;;5054949;28;20406;-40
2021/10/02 04:33:07;;;;;;;61.08;25.63;;;9.50;74.50;;;;;;5054871;28;20026;-37
2021/10/02 04:35:33;;;;;;;43.65;21.05;;;9.60;74.60;;;;;;5054791;28;20127;-39
2021/10/02 04:37:59;;;;;;;35.17;22.08;;;9.60;74.70;;;;;;5054796;28;20029;-40
2021/10/02 04:40:24;;;;;;;41.20;21.98;;;9.60;74.70;;;;;;5055106;28;20110;-38
2021/10/02 04:42:50;;;;;;;54.00;22.42;;;9.70;74.80;;;;;;5054789;28;20130;-41
2021/10/02 04:45:18;;;;;;;38.25;21.38;;;9.70;74.70;;;;;;5054805;28;20036;-37
2021/10/02 04:47:46;;;;;;;49.80;21.35;;;9.80;74.70;;;;;;5056004;28;20340;-41
2021/10/02 04:50:12;;;;;;;42.35;20.60;;;9.80;74.70;;;;;;5058431;28;20070;-41
2021/10/02 04:52:38;;;;;;;42.55;20.10;;;9.90;74.60;;;;;;5058077;28;20033;-41
2021/10/02 04:55:05;;;;;;;43.00;21.80;;;9.90;74.50;;;;;;5058442;28;20029;-40
2021/10/02 04:57:31;;;;;;;49.97;22.67;;;10.00;74.60;;;;;;5058125;28;20413;-40
2021/10/02 04:59:56;;;;;;;58.30;24.10;;;10.10;74.60;;;;;;5058541;28;20033;-37
2021/10/02 05:02:22;;;;;;;81.32;25.60;;;10.10;74.40;;;;;;5058237;28;20064;-36
2021/10/02 05:04:47;;;;;;;42.70;22.27;;;10.10;74.40;;;;;;5058109;28;20060;-40
2021/10/02 05:07:13;;;;;;;49.42;22.27;;;10.20;74.40;;;;;;5058013;28;20086;-37
2021/10/02 05:09:41;;;;;;;57.80;24.65;;;10.30;74.30;;;;;;5058102;28;20078;-41
2021/10/02 05:12:09;;;;;;;59.05;23.40;;;10.30;74.20;;;;;;5057706;28;20036;-37
2021/10/02 05:14:35;;;;;;;48.20;21.70;;;10.40;74.20;;;;;;5058319;28;20108;-40
2021/10/02 05:17:04;;;;;;;59.92;21.98;;;10.40;74.20;;;;;;5056759;28;20323;-41
2021/10/02 05:19:30;;;;;;;63.15;23.30;;;10.50;74.30;;;;;;5057612;28;20036;-41
2021/10/02 05:21:55;;;;;;;47.50;21.60;;;10.60;74.20;;;;;;5057635;28;20025;-40
2021/10/02 05:24:21;;;;;;;78.75;21.65;;;10.70;74.30;;;;;;5058165;28;20021;-40
2021/10/02 05:26:46;;;;;;;52.75;23.20;;;10.70;74.30;;;;;;5057465;28;20054;-42
2021/10/02 05:29:12;;;;;;;51.45;22.70;;;10.80;74.40;;;;;;5058074;28;20416;-40
2021/10/02 05:31:38;;;;;;;48.13;22.63;;;10.90;74.50;;;;;;5057508;28;20310;-40
2021/10/02 05:34:03;;;;;;;41.78;21.42;;;11.00;74.60;;;;;;5056599;28;20033;-37
2021/10/02 05:36:29;;;;;;;38.22;22.98;;;11.10;74.70;;;;;;5057396;28;20086;-37
2021/10/02 05:38:55;;;;;;;34.72;19.90;;;11.20;74.80;;;;;;5057669;28;20032;-37
2021/10/02 05:41:20;;;;;;;35.53;20.33;;;11.30;74.80;;;;;;5057069;28;20021;-40
2021/10/02 05:43:46;;;;;;;34.60;17.77;;;11.40;74.80;;;;;;5057391;28;20029;-37
2021/10/02 05:46:12;;;;;;;29.00;16.27;;;11.50;74.60;;;;;;5056177;28;20020;-40
2021/10/02 05:48:37;;;;;;;33.90;15.57;;;11.60;74.10;;;;;;5057660;28;20052;-36
2021/10/02 05:51:04;;;;;;;26.55;15.18;;;11.70;73.30;;;;;;5057102;28;20029;-40
2021/10/02 05:53:30;;;;;;;20.65;13.57;;;11.80;72.70;;;;;;5057291;28;20096;-36
2021/10/02 05:55:55;;;;;;;32.47;12.45;;;11.90;72.10;;;;;;5056827;28;20055;-35
2021/10/02 05:58:21;;;;;;;24.65;12.95;;;12.00;71.30;;;;;;5057166;28;20033;-38
2021/10/02 06:00:47;;;;;;;33.20;12.50;;;12.10;71.00;;;;;;5057028;28;20323;-35
2021/10/02 06:03:13;;;;;;;29.42;12.30;;;12.20;70.40;;;;;;5057333;28;20112;-40
2021/10/02 06:05:39;;;;;;;23.63;10.25;;;12.30;69.60;;;;;;5057316;28;20413;-38
2021/10/02 06:08:04;;;;;;;25.65;15.15;;;12.30;67.80;;;;;;5056959;28;20393;-37
2021/10/02 06:10:30;;;;;;;31.25;18.67;;;12.40;66.70;;;;;;5056874;28;20025;-36
2021/10/02 06:12:56;;;;;;;37.03;19.15;;;12.50;66.20;;;;;;5057107;28;20041;-40
2021/10/02 06:15:24;;;;;;;28.08;13.05;;;12.60;64.90;;;;;;5057231;28;20032;-38
2021/10/02 06:17:50;;;;;;;25.65;13.70;;;12.60;64.20;;;;;;5056699;28;20373;-40
2021/10/02 06:20:16;;;;;;;17.58;10.60;;;12.70;63.60;;;;;;5056575;28;20048;-40
2021/10/02 06:22:42;;;;;;;27.70;12.50;;;12.80;63.40;;;;;;5056930;28;20125;-40
2021/10/02 06:25:09;;;;;;;39.55;15.27;;;12.80;63.20;;;;;;5056652;28;20068;-40
2021/10/02 06:27:35;;;;;;;47.50;18.33;;;12.90;63.30;;;;;;5056173;28;20475;-36
2021/10/02 06:30:01;;;;;;;27.85;13.00;;;13.00;63.40;;;;;;5056206;28;20051;-36
2021/10/02 06:32:27;;;;;;;35.30;14.02;;;13.10;63.40;;;;;;5056525;28;20103;-36
2021/10/02 06:34:52;;;;;;;33.60;15.68;;;13.20;63.80;;;;;;5056533;28;20653;-40
2021/10/02 06:37:18;;;;;;;35.95;20.73;;;13.20;64.10;;;;;;5056400;28;20087;-40
2021/10/02 06:39:44;;;;;;;36.63;20.90;;;13.30;64.50;;;;;;5056160;28;20421;-36
2021/10/02 06:42:09;;;;;;;127.18;27.20;;;13.30;65.20;;;;;;5056198;28;20425;-36
2021/10/02 06:44:35;;;;;;;33.72;14.27;;;13.40;66.00;;;;;;5056182;28;20049;-40
2021/10/02 06:47:00;;;;;;;48.85;21.30;;;13.40;66.40;;;;;;5056348;28;20021;-40
2021/10/02 06:49:28;;;;;;;29.85;15.88;;;13.50;66.90;;;;;;5056023;28;20021;-41
2021/10/02 06:51:54;;;;;;;42.20;15.05;;;13.50;67.30;;;;;;5055933;28;20102;-37
2021/10/02 06:54:20;;;;;;;61.75;31.42;;;13.60;67.70;;;;;;5055903;28;20056;-40
2021/10/02 06:56:46;;;;;;;61.05;30.35;;;13.60;68.00;;;;;;5056159;28;20457;-37
2021/10/02 06:59:11;;;;;;;25.80;16.42;;;13.70;68.40;;;;;;5056254;28;20456;-40
2021/10/02 07:01:37;;;;;;;27.55;16.98;;;13.70;68.40;;;;;;5056015;28;20322;-38
2021/10/02 07:04:03;;;;;;;34.83;20.48;;;13.70;68.60;;;;;;5056177;28;20033;-40
2021/10/02 07:06:28;;;;;;;29.98;17.65;;;13.80;68.70;;;;;;5055825;28;20021;-37
2021/10/02 07:08:54;;;;;;;41.40;17.17;;;13.90;69.00;;;;;;5055865;28;20414;-37
2021/10/02 07:11:20;;;;;;;26.65;13.70;;;13.90;69.30;;;;;;5054927;28;20321;-36
2021/10/02 07:13:45;;;;;;;22.88;14.55;;;13.90;69.60;;;;;;5056002;28;20422;-36
2021/10/02 07:16:11;;;;;;;41.63;13.75;;;14.00;69.80;;;;;;5055239;28;20025;-37
2021/10/02 07:18:37;;;;;;;26.00;13.95;;;14.00;70.00;;;;;;5056136;28;20317;-36
2021/10/02 07:21:02;;;;;;;19.25;12.52;;;14.00;70.20;;;;;;5055241;28;21122;-40
2021/10/02 07:23:29;;;;;;;26.23;14.98;;;14.10;70.20;;;;;;5056113;28;20029;-40
2021/10/02 07:25:56;;;;;;;24.05;13.73;;;14.10;70.20;;;;;;5055156;28;20025;-37
2021/10/02 07:28:22;;;;;;;28.25;14.30;;;14.20;70.30;;;;;;5055879;28;20025;-37
2021/10/02 07:30:48;;;;;;;19.77;13.57;;;14.20;70.10;;;;;;5055452;28;20032;-36
2021/10/02 07:33:14;;;;;;;23.35;14.55;;;14.20;69.90;;;;;;5055769;28;20356;-37
2021/10/02 07:35:40;;;;;;;23.67;14.82;;;14.30;69.70;;;;;;5055430;28;20031;-40
2021/10/02 07:38:06;;;;;;;23.77;14.48;;;14.30;69.50;;;;;;5055374;28;20390;-40
2021/10/02 07:40:31;;;;;;;20.42;13.45;;;14.30;69.40;;;;;;5055102;28;20029;-41
2021/10/02 07:43:01;;;;;;;27.30;13.52;;;14.30;69.10;;;;;;5055424;28;20036;-40
2021/10/02 07:45:27;;;;;;;23.58;13.93;;;14.40;68.90;;;;;;5055146;28;20118;-36
2021/10/02 07:47:55;;;;;;;27.55;14.02;;;14.40;68.40;;;;;;5054957;28;20337;-37
2021/10/02 07:50:23;;;;;;;20.90;12.52;;;14.40;68.20;;;;;;5055688;28;20033;-40
2021/10/02 07:52:50;;;;;;;16.75;12.00;;;14.50;68.00;;;;;;5054920;28;20069;-40
2021/10/02 07:55:16;;;;;;;17.35;11.40;;;14.50;68.00;;;;;;5055084;28;20029;-42
2021/10/02 07:57:45;;;;;;;35.03;13.40;;;14.50;67.90;;;;;;5054902;28;20108;-40
2021/10/02 08:00:16;;;;;;;22.95;12.75;;;14.50;67.90;;;;;;5055175;28;20056;-37
2021/10/02 08:02:47;;;;;;;20.45;12.00;;;14.60;67.80;;;;;;5055281;28;20295;-41
2021/10/02 08:05:14;;;;;;;20.23;12.40;;;14.60;67.50;;;;;;5055324;28;20328;-41
2021/10/02 08:07:45;;;;;;;41.83;26.17;;;14.60;67.20;;;;;;5054868;28;20059;-37
2021/10/02 08:10:15;;;;;;;24.88;16.55;;;14.60;66.30;;;;;;5054894;28;20087;-42
2021/10/02 08:12:40;;;;;;;21.52;13.00;;;14.60;66.10;;;;;;5055049;28;20033;-35
2021/10/02 08:15:08;;;;;;;32.70;21.60;;;14.70;66.10;;;;;;5054659;28;20037;-36
2021/10/02 08:17:36;;;;;;;15.30;9.63;;;14.70;65.70;;;;;;5054566;28;20037;-37
2021/10/02 08:20:09;;;;;;;27.08;10.93;;;14.70;64.90;;;;;;5054748;28;20103;-36
2021/10/02 08:22:50;;;;;;;18.27;8.70;;;14.70;64.30;;;;;;5057976;28;20348;-37
2021/10/02 08:25:18;;;;;;;14.50;7.95;;;14.80;63.40;;;;;;5058716;28;20069;-41
2021/10/02 08:27:46;;;;;;;13.20;7.82;;;14.80;63.10;;;;;;5058967;28;20404;-37
2021/10/02 08:30:14;;;;;;;18.08;9.02;;;14.80;62.90;;;;;;5058862;28;20032;-40
2021/10/02 08:32:40;;;;;;;10.88;7.03;;;14.90;62.40;;;;;;5058863;28;20056;-41
2021/10/02 08:35:07;;;;;;;12.38;7.05;;;14.90;61.90;;;;;;5058982;28;20033;-37
2021/10/02 08:37:34;;;;;;;14.55;6.55;;;14.90;61.20;;;;;;5058640;28;20067;-40
2021/10/02 08:39:59;;;;;;;13.00;7.10;;;14.90;60.80;;;;;;5047456;28;20037;-41
2021/10/02 08:42:26;;;;;;;21.15;7.07;;;15.00;60.70;;;;;;5038730;28;20145;-37
2021/10/02 08:44:53;;;;;;;17.02;7.05;;;15.00;60.50;;;;;;5038605;28;20421;-37
2021/10/02 08:47:23;;;;;;;15.82;8.00;;;15.00;60.10;;;;;;5038607;28;20025;-37
2021/10/02 08:49:51;;;;;;;16.10;6.47;;;15.10;59.90;;;;;;5038575;28;20033;-37
2021/10/02 08:52:20;;;;;;;10.48;6.50;;;15.10;59.60;;;;;;5038217;28;20091;-37
2021/10/02 08:54:52;;;;;;;9.35;6.57;;;15.10;59.30;;;;;;5038149;28;20049;-40
2021/10/02 08:57:23;;;;;;;13.52;6.60;;;15.20;59.50;;;;;;5038138;28;20124;-41
2021/10/02 08:59:51;;;;;;;18.27;10.23;;;15.20;58.80;;;;;;5037886;28;20037;-41
2021/10/02 09:02:18;;;;;;;9.80;6.18;;;15.30;59.10;;;;;;5038259;28;20053;-37
2021/10/02 09:04:44;;;;;;;25.70;9.18;;;15.20;58.60;;;;;;5038264;28;20295;-41
2021/10/02 09:07:11;;;;;;;19.30;12.85;;;15.30;58.50;;;;;;5037697;28;20083;-41
2021/10/02 09:09:37;;;;;;;14.32;7.20;;;15.30;58.30;;;;;;5037890;28;20334;-41
2021/10/02 09:12:07;;;;;;;13.70;7.00;;;15.40;58.10;;;;;;5038025;28;20025;-41
2021/10/02 09:14:33;;;;;;;12.65;7.75;;;15.40;57.80;;;;;;5037970;28;20052;-37
2021/10/02 09:17:00;;;;;;;13.93;7.22;;;15.40;57.80;;;;;;5037749;28;20034;-41
2021/10/02 09:19:26;;;;;;;10.70;6.63;;;15.50;57.80;;;;;;5038135;28;20060;-38
2021/10/02 09:22:04;;;;;;;11.75;6.30;;;15.50;57.60;;;;;;5037664;28;20029;-38
2021/10/02 09:24:35;;;;;;;15.25;6.05;;;15.50;57.00;;;;;;5042878;28;20082;-39
2021/10/02 09:27:02;;;;;;;10.65;5.38;;;15.60;56.60;;;;;;5057708;28;20067;-37
2021/10/02 09:29:37;;;;;;;15.85;5.50;;;15.60;56.70;;;;;;5056928;28;20112;-37
2021/10/02 09:32:04;;;;;;;10.90;5.78;;;15.60;55.90;;;;;;5057274;28;20028;-40
2021/10/02 09:34:30;;;;;;;10.88;5.35;;;15.60;55.70;;;;;;5056387;28;20025;-37
2021/10/02 09:36:56;;;;;;;12.13;8.32;;;15.60;55.10;;;;;;5056876;28;20439;-36
2021/10/02 09:39:38;;;;;;;17.35;9.40;;;15.70;54.80;;;;;;5057011;28;20040;-37
2021/10/02 09:42:03;;;;;;;16.85;8.60;;;15.70;54.70;;;;;;5056978;28;20033;-40
2021/10/02 09:44:29;;;;;;;13.27;5.82;;;15.70;54.20;;;;;;5057055;28;20301;-39
2021/10/02 09:46:55;;;;;;;12.20;6.13;;;15.70;53.40;;;;;;5057273;28;20029;-37
2021/10/02 09:49:20;;;;;;;9.38;6.30;;;15.70;53.30;;;;;;5056848;28;20028;-40
2021/10/02 09:51:46;;;;;;;41.00;6.47;;;15.80;53.30;;;;;;5057139;28;20107;-41
2021/10/02 09:54:36;;;;;;;18.63;5.10;;;15.80;52.80;;;;;;5056524;28;20067;-41
2021/10/02 09:57:07;;;;;;;11.98;5.82;;;15.80;51.50;;;;;;5056187;28;20041;-41
2021/10/02 09:59:33;;;;;;;;;;;15.80;50.90;;;;;;5056898;28;20041;-37
2021/10/02 10:02:12;;;;;;;12.98;4.60;;;15.80;52.00;;;;;;5056797;28;19919;-37
2021/10/02 10:04:38;;;;;;;46.28;6.72;;;15.80;50.40;;;;;;5056421;28;20029;-37
2021/10/02 10:07:08;;;;;;;12.48;4.63;;;15.80;50.10;;;;;;5056537;28;20032;-40
2021/10/02 10:09:39;;;;;;;6.53;3.60;;;15.90;49.40;;;;;;5056675;28;20025;-37
2021/10/02 10:12:05;;;;;;;16.58;4.28;;;15.90;49.30;;;;;;5056824;28;20362;-40
2021/10/02 10:14:34;;;;;;;8.02;3.40;;;15.90;49.00;;;;;;5056514;28;20025;-40
2021/10/02 10:17:00;;;;;;;12.27;5.35;;;16.00;48.60;;;;;;5056500;28;20048;-36
2021/10/02 10:19:28;;;;;;;22.80;13.90;;;16.10;48.90;;;;;;5056651;28;20025;-36
2021/10/02 10:22:18;;;;;;;7.85;5.63;;;16.10;48.10;;;;;;5056615;28;20025;-37
2021/10/02 10:24:59;;;;;;;25.35;17.25;;;16.20;47.70;;;;;;5055963;28;20032;-37
2021/10/02 10:27:35;;;;;;;24.95;9.70;;;16.30;47.60;;;;;;5056189;28;20108;-37
2021/10/02 10:30:28;;;;;;;10.70;5.97;;;16.30;47.30;;;;;;5056225;28;20368;-37
2021/10/02 10:33:10;;;;;;;18.05;4.80;;;16.40;47.20;;;;;;5056026;28;20041;-40
2021/10/02 10:35:38;;;;;;;10.88;3.85;;;16.40;46.90;;;;;;5056385;28;20083;-37
2021/10/02 10:38:06;;;;;;;6.93;3.72;;;16.50;47.10;;;;;;5056107;28;20448;-36
2021/10/02 10:40:32;;;;;;;19.73;4.78;;;16.60;46.90;;;;;;5055672;28;20139;-39
2021/10/02 10:42:57;;;;;;;6.60;4.80;;;16.60;46.80;;;;;;5056019;28;20025;-38
2021/10/02 10:45:24;;;;;;;6.55;4.30;;;16.70;46.90;;;;;;5055144;28;20028;-42
2021/10/02 10:47:50;;;;;;;9.10;4.53;;;16.70;46.40;;;;;;5055903;28;20033;-37
2021/10/02 10:50:17;;;;;;;8.10;4.35;;;16.80;46.20;;;;;;5054622;28;20035;-36
2021/10/02 10:52:43;;;;;;;14.82;7.63;;;16.80;46.30;;;;;;5055728;28;20029;-40
2021/10/02 10:55:21;;;;;;;9.70;4.85;;;16.90;46.50;;;;;;5055590;28;20029;-40
2021/10/02 10:57:52;;;;;;;14.15;5.00;;;17.00;46.20;;;;;;5055673;28;20068;-41
2021/10/02 11:00:32;;;;;;;5.75;3.72;;;17.10;46.10;;;;;;5055396;28;20033;-40
2021/10/02 11:03:04;;;;;;;8.45;4.10;;;17.10;46.30;;;;;;5055598;28;20048;-41
2021/10/02 11:05:44;;;;;;;9.85;5.07;;;17.20;45.90;;;;;;5056346;28;20043;-41
2021/10/02 11:08:16;;;;;;;23.83;5.60;;;17.30;45.90;;;;;;5056083;28;20290;-37
2021/10/02 11:10:45;;;;;;;6.82;4.30;;;17.40;45.60;;;;;;5055884;28;20036;-38
2021/10/02 11:13:29;;;;;;;7.00;4.80;;;17.50;45.40;;;;;;5056226;28;20051;-39
2021/10/02 11:15:56;;;;;;;8.95;5.63;;;17.50;45.50;;;;;;5055447;28;20029;-40
2021/10/02 11:18:45;;;;;;;7.20;4.65;;;17.60;45.00;;;;;;5055846;28;20417;-41
2021/10/02 11:21:16;;;;;;;8.18;3.80;;;17.70;44.30;;;;;;5055528;28;20033;-35
2021/10/02 11:23:54;;;;;;;18.75;4.28;;;17.80;44.60;;;;;;5054451;28;20033;-39
2021/10/02 11:26:24;;;;;;;10.77;5.13;;;17.90;44.30;;;;;;5055645;28;20407;-40
2021/10/02 11:29:02;;;;;;;7.88;3.70;;;18.00;44.60;;;;;;5055735;28;20112;-37
2021/10/02 11:31:29;;;;;;;10.63;4.18;;;18.10;44.10;;;;;;5055545;28;20329;-37
2021/10/02 11:34:00;;;;;;;7.75;4.50;;;18.20;44.20;;;;;;5054096;28;20072;-37
2021/10/02 11:36:31;;;;;;;6.47;3.70;;;18.20;43.90;;;;;;5054844;28;20033;-37
2021/10/02 11:39:12;;;;;;;10.65;4.35;;;18.30;43.80;;;;;;5054078;28;20045;-41
2021/10/02 11:41:52;;;;;;;6.45;4.63;;;18.40;43.30;;;;;;5055276;28;20151;-37
2021/10/02 11:44:37;;;;;;;6.85;4.10;;;18.50;43.40;;;;;;5055250;28;20440;-39
2021/10/02 11:47:27;;;;;;;7.63;3.90;;;18.60;43.40;;;;;;5055000;28;20025;-37
2021/10/02 11:50:12;;;;;;;7.82;3.42;;;18.80;42.90;;;;;;5054676;28;20445;-41
2021/10/02 11:53:00;;;;;;;6.28;3.63;;;18.90;42.50;;;;;;5054841;28;20075;-37
2021/10/02 11:55:40;;;;;;;8.98;4.18;;;19.10;42.90;;;;;;5055440;28;20086;-37
2021/10/02 11:58:09;;;;;;;6.65;4.10;;;19.20;42.50;;;;;;5055073;28;20029;-39
2021/10/02 12:00:38;;;;;;;8.45;4.20;;;19.40;42.30;;;;;;5055241;28;20394;-40
2021/10/02 12:03:05;;;;;;;11.70;4.40;;;19.50;41.80;;;;;;5055044;28;20029;-37
2021/10/02 12:05:31;;;;;;;21.48;10.73;;;19.60;41.90;;;;;;5054893;28;20027;-40
2021/10/02 12:07:57;;;;;;;14.65;7.68;;;19.80;41.40;;;;;;5054918;28;20086;-37
2021/10/02 12:10:23;;;;;;;19.60;6.43;;;19.90;41.00;;;;;;5055123;28;20045;-37
2021/10/02 12:12:49;;;;;;;22.00;10.05;;;20.00;40.60;;;;;;5054573;28;20033;-37
2021/10/02 12:15:32;;;;;;;19.65;8.25;;;20.20;40.70;;;;;;5055001;28;20033;-37
2021/10/02 12:17:57;;;;;;;40.30;13.40;;;20.40;40.30;;;;;;5054895;28;20029;-40
2021/10/02 12:20:43;;;;;;;16.08;5.80;;;20.50;40.40;;;;;;5055116;28;20040;-36
2021/10/02 12:23:11;;;;;;;24.98;11.10;;;20.60;39.50;;;;;;5054990;28;20029;-37
2021/10/02 12:25:37;;;;;;;29.75;12.80;;;20.70;39.30;;;;;;5054669;28;20472;-36
2021/10/02 12:28:03;;;;;;;22.25;7.22;;;20.90;39.20;;;;;;5054795;28;20104;-40
2021/10/02 12:30:30;;;;;;;8.23;4.20;;;21.00;38.50;;;;;;5049986;28;20055;-36
2021/10/02 12:33:04;;;;;;;25.02;4.70;;;21.10;37.30;;;;;;5037241;28;20040;-42
2021/10/02 12:35:30;;;;;;;43.75;27.10;;;21.10;36.70;;;;;;5034967;28;20059;-36
2021/10/02 12:37:56;;;;;;;20.25;6.90;;;21.20;36.90;;;;;;5034929;28;20057;-37
2021/10/02 12:40:26;;;;;;;13.30;4.38;;;21.20;36.80;;;;;;5034729;28;20497;-40
2021/10/02 12:42:58;;;;;;;10.00;4.30;;;21.30;36.40;;;;;;5034822;28;20380;-38
2021/10/02 12:45:38;;;;;;;16.70;6.22;;;21.30;36.10;;;;;;5034651;28;20033;-37
2021/10/02 12:48:05;;;;;;;20.30;10.98;;;21.40;36.20;;;;;;5034104;28;20406;-38
2021/10/02 12:50:35;;;;;;;30.92;11.98;;;21.50;36.60;;;;;;5034564;28;20048;-37
2021/10/02 12:53:02;;;;;;;;;;;21.60;36.30;;;;;;5035044;28;20389;-37
2021/10/02 12:55:28;;;;;;;29.13;5.68;;;21.60;37.20;;;;;;5034458;28;19905;-37
2021/10/02 12:57:54;;;;;;;29.27;10.77;;;21.70;36.20;;;;;;5034593;28;20045;-38
2021/10/02 13:00:30;;;;;;;30.95;10.60;;;21.90;35.90;;;;;;5034621;28;20042;-37
2021/10/02 13:03:03;;;;;;;22.90;6.88;;;22.00;35.80;;;;;;5034529;28;20049;-37
2021/10/02 13:05:32;;;;;;;38.30;13.20;;;22.10;35.50;;;;;;5034736;28;20083;-38
2021/10/02 13:08:00;;;;;;;26.60;14.10;;;22.20;35.30;;;;;;5034663;28;20041;-37
2021/10/02 13:10:33;;;;;;;15.95;6.40;;;22.20;35.20;;;;;;5038259;28;20032;-40
2021/10/02 13:13:04;;;;;;;20.80;14.15;;;22.30;34.70;;;;;;5037939;28;20041;-37
2021/10/02 13:15:43;;;;;;;18.98;5.68;;;22.40;34.60;;;;;;5038177;28;20029;-36
2021/10/02 13:18:16;;;;;;;22.73;9.18;;;22.40;33.90;;;;;;5038373;28;20033;-36
2021/10/02 13:20:42;;;;;;;26.67;14.40;;;22.40;34.30;;;;;;5038378;28;20037;-39
2021/10/02 13:23:34;;;;;;;17.33;8.60;;;22.40;34.40;;;;;;5037894;28;20030;-39
2021/10/02 13:26:03;;;;;;;37.45;8.38;;;22.50;33.90;;;;;;5037255;28;20425;-37
2021/10/02 13:28:34;;;;;;;35.55;16.48;;;22.50;34.20;;;;;;5038150;28;20033;-40
2021/10/02 13:31:16;;;;;;;26.10;6.75;;;22.50;34.10;;;;;;5037666;28;20068;-37
2021/10/02 13:33:50;;;;;;;33.03;14.75;;;22.60;33.50;;;;;;5038235;28;20029;-41
2021/10/02 13:36:37;;;;;;;23.70;11.50;;;22.60;33.40;;;;;;5037988;28;20349;-40
2021/10/02 13:39:11;;;;;;;16.33;6.75;;;22.70;33.70;;;;;;5037966;28;20061;-41
2021/10/02 13:41:39;;;;;;;15.13;8.10;;;22.70;33.60;;;;;;5037484;28;20405;-41
2021/10/02 13:44:05;;;;;;;20.27;7.88;;;22.70;33.50;;;;;;5037839;28;20041;-41